Time;durP1;ratioP1;P1;durP2;ratioP2;P2;SDS_P1;SDS_P2;PMS_P1;PMS_P2;Temp;Humidity;BMP_temperature;BMP_pressure;BME280_temperature;BME280_humidity;BME280_pressure;Samples;Min_cycle;Max_cycle;Signal;HPM_P1;HPM_P2
2022/08/27 00:00:29;;;;;;;31.02;21.65;;;;;;;19.38;63.90;99737.94;5030622;28;20056;-60
2022/08/27 00:02:56;;;;;;;40.05;21.88;;;;;;;19.35;64.61;99730.44;5029757;28;20037;-60
2022/08/27 00:05:22;;;;;;;32.20;21.08;;;;;;;19.32;64.23;99734.50;5031169;28;20053;-60
2022/08/27 00:07:48;;;;;;;35.90;21.98;;;;;;;19.28;64.59;99730.81;5030194;28;20033;-60
2022/08/27 00:10:18;;;;;;;33.33;21.77;;;;;;;19.23;64.74;99728.16;5029943;28;20052;-59
2022/08/27 00:12:44;;;;;;;36.78;21.77;;;;;;;19.18;65.09;99733.63;5029831;28;20037;-59
2022/08/27 00:15:11;;;;;;;33.63;22.45;;;;;;;19.14;65.21;99730.69;5031272;28;20060;-60
2022/08/27 00:17:37;;;;;;;35.50;20.73;;;;;;;19.10;65.21;99737.72;5030362;28;20038;-60
2022/08/27 00:20:05;;;;;;;29.35;21.67;;;;;;;19.09;65.86;99736.13;5031326;28;20069;-60
2022/08/27 00:22:31;;;;;;;40.67;22.38;;;;;;;19.05;65.62;99737.78;5033219;28;20068;-61
2022/08/27 00:24:56;;;;;;;32.47;20.92;;;;;;;19.01;65.41;99736.75;5033716;28;20075;-60
2022/08/27 00:27:22;;;;;;;34.65;21.50;;;;;;;18.98;66.08;99735.44;5034086;28;20073;-61
2022/08/27 00:29:48;;;;;;;32.90;22.38;;;;;;;18.91;66.81;99736.84;5035171;28;20484;-59
2022/08/27 00:32:14;;;;;;;34.10;20.40;;;;;;;18.92;64.79;99736.56;5034960;28;20128;-61
2022/08/27 00:34:40;;;;;;;32.75;20.73;;;;;;;18.95;65.08;99735.19;5035014;28;20148;-61
2022/08/27 00:37:06;;;;;;;39.55;23.35;;;;;;;18.90;66.41;99733.34;5033472;28;20093;-63
2022/08/27 00:39:32;;;;;;;37.95;22.85;;;;;;;18.80;67.70;99736.16;5033447;28;20063;-60
2022/08/27 00:41:59;;;;;;;37.40;22.25;;;;;;;18.70;67.91;99737.00;5034682;28;20079;-62
2022/08/27 00:44:28;;;;;;;36.67;23.35;;;;;;;18.61;68.16;99731.44;5034623;28;20057;-60
2022/08/27 00:46:56;;;;;;;34.00;23.20;;;;;;;18.59;68.63;99735.50;5034234;28;20046;-63
2022/08/27 00:49:27;;;;;;;36.13;23.83;;;;;;;18.54;69.06;99739.03;5033403;28;20049;-61
2022/08/27 00:51:57;;;;;;;38.17;23.17;;;;;;;18.48;68.86;99737.47;5033317;28;20080;-62
2022/08/27 00:54:23;;;;;;;;;;;;;;;18.49;68.49;99747.13;5033471;28;20041;-61
2022/08/27 00:56:49;;;;;;;37.63;22.73;;;;;;;18.47;68.20;99738.56;5032701;28;20287;-61
2022/08/27 00:59:16;;;;;;;40.38;22.80;;;;;;;18.50;69.25;99745.22;5033116;28;20048;-61
2022/08/27 01:04:30;;;;;;;39.63;22.55;;;;;;;18.46;67.97;99742.31;5032556;28;20057;-62
2022/08/27 01:06:56;;;;;;;38.53;23.63;;;;;;;18.45;67.96;99743.41;5034246;28;20053;-60
2022/08/27 01:09:22;;;;;;;41.97;22.48;;;;;;;18.43;68.16;99744.75;5032772;28;20056;-61
2022/08/27 01:11:48;;;;;;;40.30;23.58;;;;;;;18.36;69.04;99740.50;5033072;28;20037;-62
2022/08/27 01:14:14;;;;;;;33.55;22.50;;;;;;;18.31;69.57;99745.13;5032465;28;20067;-61
2022/08/27 01:16:46;;;;;;;37.92;23.17;;;;;;;18.26;70.10;99745.94;5032727;28;20038;-61
2022/08/27 01:19:37;;;;;;;36.60;23.75;;;;;;;18.17;70.84;99747.63;5016492;28;20048;-61
2022/08/27 01:22:13;;;;;;;40.30;23.40;;;;;;;18.12;69.58;99739.63;5032735;28;20045;-60
2022/08/27 01:24:45;;;;;;;40.08;24.60;;;;;;;18.11;68.85;99746.84;5032835;28;20399;-60
2022/08/27 01:27:16;;;;;;;38.28;23.70;;;;;;;18.10;67.79;99744.44;5032575;28;20037;-61
2022/08/27 01:29:42;;;;;;;39.15;23.75;;;;;;;18.10;68.22;99747.94;5016190;28;20045;-60
2022/08/27 01:32:19;;;;;;;39.55;24.05;;;;;;;18.08;68.44;99741.25;5033339;28;20064;-59
2022/08/27 01:34:46;;;;;;;42.63;24.20;;;;;;;18.06;67.79;99744.22;5032627;28;20045;-60
2022/08/27 01:37:12;;;;;;;36.13;24.30;;;;;;;18.02;68.74;99740.47;5033729;28;20041;-60
2022/08/27 01:39:40;;;;;;;39.40;25.35;;;;;;;18.02;68.56;99745.03;5032457;28;20042;-61
2022/08/27 01:42:14;;;;;;;44.42;24.90;;;;;;;17.99;67.17;99749.06;5033389;28;20055;-66
2022/08/27 01:44:48;;;;;;;38.97;25.17;;;;;;;17.99;66.71;99751.75;5033812;28;20049;-60
2022/08/27 01:47:15;;;;;;;35.53;24.05;;;;;;;18.01;66.03;99749.59;5033602;28;20060;-60
2022/08/27 01:49:41;;;;;;;43.05;25.20;;;;;;;18.03;65.98;99750.13;5032012;28;20525;-61
2022/08/27 01:52:07;;;;;;;40.17;25.55;;;;;;;18.07;64.89;99745.00;5033143;28;20495;-61
2022/08/27 01:54:33;;;;;;;47.17;25.10;;;;;;;18.10;64.83;99752.50;5033412;28;20064;-61
2022/08/27 01:56:59;;;;;;;39.85;24.63;;;;;;;18.08;66.35;99744.72;5032036;28;20041;-61
2022/08/27 01:59:25;;;;;;;38.28;25.60;;;;;;;18.07;67.23;99758.44;5031995;28;20053;-60
2022/08/27 02:01:52;;;;;;;37.42;25.13;;;;;;;18.04;65.82;99748.25;5015466;28;20468;-62
2022/08/27 02:04:18;;;;;;;40.67;25.20;;;;;;;18.01;67.40;99754.16;5032107;28;20132;-61
2022/08/27 02:06:45;;;;;;;40.03;24.42;;;;;;;17.99;66.47;99759.81;5031875;28;20087;-60
2022/08/27 02:09:11;;;;;;;39.33;25.83;;;;;;;18.02;66.04;99761.13;5033394;28;20101;-60
2022/08/27 02:11:37;;;;;;;41.08;26.30;;;;;;;18.01;65.33;99757.66;5032373;28;20037;-60
2022/08/27 02:14:03;;;;;;;46.30;25.80;;;;;;;18.00;66.86;99760.59;5033125;28;20091;-60
2022/08/27 02:16:31;;;;;;;39.42;24.55;;;;;;;17.97;65.92;99755.78;5015253;28;20142;-61
2022/08/27 02:18:58;;;;;;;41.53;25.85;;;;;;;17.96;66.49;99755.00;5032977;28;20046;-61
2022/08/27 02:21:24;;;;;;;39.25;26.27;;;;;;;17.94;66.49;99762.50;5032176;28;20056;-62
2022/08/27 02:23:50;;;;;;;39.72;26.58;;;;;;;17.89;66.75;99767.91;5032959;28;20130;-61
2022/08/27 02:26:16;;;;;;;41.63;25.73;;;;;;;17.83;67.97;99761.78;5032669;28;20502;-61
2022/08/27 02:28:42;;;;;;;40.80;26.85;;;;;;;17.76;68.80;99761.22;5031430;28;20521;-61
2022/08/27 02:31:08;;;;;;;39.13;27.17;;;;;;;17.73;68.26;99767.13;5032300;28;20041;-61
2022/08/27 02:33:34;;;;;;;44.85;26.95;;;;;;;17.76;64.71;99760.44;5032709;28;20315;-60
2022/08/27 02:35:59;;;;;;;46.08;29.10;;;;;;;17.83;63.22;99755.63;5032552;28;20045;-61
2022/08/27 02:38:25;;;;;;;50.00;29.42;;;;;;;17.92;62.84;99767.34;5032674;28;20099;-61
2022/08/27 02:40:50;;;;;;;44.70;28.33;;;;;;;18.03;62.41;99766.22;5032036;28;20071;-60
2022/08/27 02:43:17;;;;;;;48.85;29.88;;;;;;;18.11;61.75;99759.47;5032408;28;20389;-62
2022/08/27 02:45:43;;;;;;;47.33;30.23;;;;;;;18.20;61.10;99763.16;5031339;28;20072;-63
2022/08/27 02:48:08;;;;;;;54.75;31.65;;;;;;;18.30;60.28;99765.78;5014481;28;20073;-64
2022/08/27 02:50:35;;;;;;;49.50;32.35;;;;;;;18.44;59.93;99773.97;5030693;28;20052;-61
2022/08/27 02:53:01;;;;;;;57.10;33.30;;;;;;;18.52;59.75;99765.34;5030529;28;20509;-61
2022/08/27 02:55:28;;;;;;;55.97;34.30;;;;;;;18.68;58.68;99770.56;5032465;28;20053;-61
2022/08/27 02:57:54;;;;;;;60.90;34.03;;;;;;;18.83;58.17;99760.56;5032437;28;20041;-60
2022/08/27 03:00:21;;;;;;;57.17;33.92;;;;;;;19.01;57.37;99772.47;5030371;28;20574;-59
2022/08/27 03:02:48;;;;;;;58.03;33.33;;;;;;;19.15;57.75;99782.53;5030867;28;20052;-62
2022/08/27 03:05:15;;;;;;;61.90;34.65;;;;;;;19.27;57.36;99778.38;5030657;28;20045;-58
2022/08/27 03:07:40;;;;;;;64.80;36.78;;;;;;;19.36;56.81;99781.25;5032067;28;20070;-61
2022/08/27 03:10:07;;;;;;;69.07;37.53;;;;;;;19.45;56.37;99778.72;5030652;28;20077;-61
2022/08/27 03:12:35;;;;;;;72.40;37.97;;;;;;;19.55;56.12;99777.81;5032087;28;20037;-61
2022/08/27 03:15:05;;;;;;;73.00;40.17;;;;;;;19.71;55.45;99784.66;5030194;28;20143;-61
2022/08/27 03:20:15;;;;;;;62.53;37.35;;;;;;;19.99;55.05;99779.44;5000021;28;20059;-59
2022/08/27 03:22:41;;;;;;;69.95;38.28;;;;;;;20.08;54.83;99786.56;5030654;28;20124;-61
2022/08/27 03:25:08;;;;;;;81.25;43.17;;;;;;;20.16;54.26;99785.13;5030246;28;20060;-60
2022/08/27 03:27:34;;;;;;;73.82;43.33;;;;;;;20.27;54.07;99775.00;5031773;28;20498;-60
2022/08/27 03:30:10;;;;;;;70.18;42.95;;;;;;;20.34;54.24;99778.91;5030577;28;20132;-60
2022/08/27 03:32:37;;;;;;;75.13;42.95;;;;;;;20.41;54.03;99786.63;5030400;28;20072;-62
2022/08/27 03:35:03;;;;;;;89.38;45.17;;;;;;;20.48;54.01;99789.75;5025501;28;20061;-63
2022/08/27 03:37:29;;;;;;;71.57;41.97;;;;;;;20.58;53.93;99780.72;5030220;28;20056;-62
2022/08/27 03:39:54;;;;;;;58.45;35.78;;;;;;;20.70;55.02;99791.84;5031898;28;20049;-61
2022/08/27 03:42:21;;;;;;;74.57;47.65;;;;;;;20.79;53.30;99786.59;5025854;28;20096;-63
2022/08/27 03:44:47;;;;;;;71.05;44.60;;;;;;;20.92;53.15;99785.84;5030273;28;20057;-59
2022/08/27 03:47:14;;;;;;;72.68;46.08;;;;;;;21.03;52.91;99781.88;5038891;28;20040;-59
2022/08/27 03:49:40;;;;;;;70.95;45.50;;;;;;;21.10;53.69;99782.25;5026587;28;20065;-61
2022/08/27 03:52:06;;;;;;;62.78;39.47;;;;;;;21.23;53.85;99783.38;5011892;28;20042;-62
2022/08/27 03:54:38;;;;;;;77.65;48.00;;;;;;;21.31;52.60;99790.75;5008163;28;20058;-61
2022/08/27 03:57:04;;;;;;;68.05;45.83;;;;;;;21.40;53.10;99784.72;5007007;28;20041;-60
2022/08/27 03:59:30;;;;;;;59.88;39.83;;;;;;;21.55;53.70;99787.09;5010454;28;20038;-73
2022/08/27 04:01:56;;;;;;;80.20;48.83;;;;;;;21.62;51.90;99789.38;5025363;28;20083;-59
2022/08/27 04:04:23;;;;;;;70.63;45.72;;;;;;;21.73;52.35;99778.09;4978791;28;20046;-60
2022/08/27 04:06:49;;;;;;;81.82;55.58;;;;;;;21.87;51.49;99779.97;5029593;28;20052;-61
2022/08/27 04:09:15;;;;;;;67.60;46.03;;;;;;;22.01;51.96;99786.16;5027589;28;20053;-60
2022/08/27 04:11:41;;;;;;;65.40;39.40;;;;;;;22.15;52.85;99788.81;5027461;28;20043;-59
2022/08/27 04:14:08;;;;;;;61.67;39.20;;;;;;;22.33;52.12;99796.00;5014778;28;20220;-60
2022/08/27 04:16:34;;;;;;;73.07;44.97;;;;;;;22.42;51.42;99796.06;5037270;28;20037;-60
2022/08/27 04:19:01;;;;;;;81.88;52.30;;;;;;;22.36;50.27;99798.09;5032337;28;20045;-60
2022/08/27 04:21:28;;;;;;;87.65;49.00;;;;;;;22.38;50.67;99806.69;5045316;28;20557;-61
2022/08/27 04:23:58;;;;;;;99.78;55.45;;;;;;;22.30;50.56;99793.91;5012512;28;20046;-61
2022/08/27 04:26:27;;;;;;;82.50;52.13;;;;;;;22.35;50.48;99804.56;5029677;28;20044;-59
2022/08/27 04:28:52;;;;;;;85.07;52.85;;;;;;;22.48;50.45;99804.84;5029474;28;20049;-60
2022/08/27 04:31:20;;;;;;;92.30;54.35;;;;;;;22.51;50.59;99794.22;5021278;28;20095;-61
2022/08/27 04:33:46;;;;;;;91.00;53.33;;;;;;;22.64;50.53;99796.03;5009009;28;20065;-60
2022/08/27 04:36:11;;;;;;;87.00;56.20;;;;;;;22.64;50.35;99806.84;5018428;28;20072;-61
2022/08/27 04:38:37;;;;;;;90.30;56.13;;;;;;;22.69;50.59;99803.25;5027953;28;20320;-58
2022/08/27 04:41:26;;;;;;;88.18;56.03;;;;;;;22.71;50.33;99805.63;5009967;28;20071;-61
2022/08/27 04:43:55;;;;;;;93.25;56.97;;;;;;;22.76;50.24;99795.50;5021186;28;20044;-60
2022/08/27 04:46:27;;;;;;;100.10;56.28;;;;;;;22.70;50.89;99802.13;5009379;28;20057;-61
2022/08/27 04:48:55;;;;;;;93.65;55.65;;;;;;;22.65;51.07;99802.28;5009886;28;20046;-68
2022/08/27 04:51:21;;;;;;;94.00;55.20;;;;;;;22.72;51.46;99793.72;5009817;28;20099;-67
2022/08/27 04:53:48;;;;;;;84.78;53.35;;;;;;;22.70;50.90;99798.63;5028203;28;20041;-68
2022/08/27 04:56:16;;;;;;;96.15;54.53;;;;;;;22.70;50.77;99791.31;5027754;28;20045;-68
2022/08/27 04:58:43;;;;;;;94.20;53.67;;;;;;;22.69;50.50;99792.44;5027469;28;20056;-68
2022/08/27 05:01:15;;;;;;;84.57;53.35;;;;;;;22.69;50.59;99797.84;5026544;28;20041;-66
2022/08/27 05:03:40;;;;;;;93.82;55.20;;;;;;;22.62;50.43;99795.56;5026237;28;20553;-66
2022/08/27 05:06:06;;;;;;;83.00;52.80;;;;;;;22.64;50.57;99795.25;5026327;28;20050;-68
2022/08/27 05:08:36;;;;;;;;;;;;;;;22.67;51.01;99794.63;5026513;28;20433;-65
2022/08/27 05:11:01;;;;;;;81.68;49.05;;;;;;;22.61;50.92;99796.66;5029268;28;19929;-68
2022/08/27 05:13:28;;;;;;;82.22;49.55;;;;;;;22.60;51.15;99792.38;5028793;28;20042;-67
2022/08/27 05:16:10;;;;;;;86.75;51.72;;;;;;;22.67;51.24;99794.63;5031298;28;20077;-67
2022/08/27 05:18:37;;;;;;;86.38;53.75;;;;;;;22.70;51.28;99788.63;5031115;28;20042;-67
2022/08/27 05:21:05;;;;;;;90.93;54.13;;;;;;;22.71;51.67;99790.22;5032201;28;20084;-69
2022/08/27 05:23:31;;;;;;;85.53;52.25;;;;;;;22.74;51.17;99795.03;5029726;28;20099;-67
2022/08/27 05:25:57;;;;;;;85.53;54.75;;;;;;;22.79;51.58;99789.47;4993190;28;20057;-70
2022/08/27 05:28:25;;;;;;;89.25;54.58;;;;;;;22.85;51.59;99793.66;5022054;28;20041;-68
2022/08/27 05:30:53;;;;;;;88.65;55.10;;;;;;;22.85;50.99;99788.25;5030966;28;20072;-67
2022/08/27 05:33:22;;;;;;;92.35;56.55;;;;;;;22.94;51.28;99790.97;5030879;28;20053;-68
2022/08/27 05:35:56;;;;;;;99.10;57.67;;;;;;;23.01;50.61;99796.78;5014443;28;20050;-71
2022/08/27 05:38:26;;;;;;;101.20;57.42;;;;;;;23.07;49.70;99795.53;5032184;28;20044;-62
2022/08/27 05:41:13;;;;;;;104.18;59.75;;;;;;;23.16;50.64;99794.78;5031821;28;20041;-63
2022/08/27 05:43:40;;;;;;;99.57;59.75;;;;;;;23.27;50.60;99810.44;5033183;28;20124;-64
2022/08/27 05:46:10;;;;;;;99.93;57.50;;;;;;;23.37;50.23;99811.28;5032209;28;20079;-63
2022/08/27 05:48:38;;;;;;;104.80;58.15;;;;;;;23.51;49.95;99806.56;5014170;28;20044;-60
2022/08/27 05:51:19;;;;;;;92.93;58.08;;;;;;;23.61;49.08;99802.75;5033105;28;20399;-65
2022/08/27 05:53:45;;;;;;;90.38;57.28;;;;;;;23.71;49.30;99791.69;5033013;28;20478;-61
2022/08/27 05:56:22;;;;;;;92.63;57.33;;;;;;;23.79;48.65;99805.22;5033384;28;20058;-64
2022/08/27 06:01:45;;;;;;;96.60;60.05;;;;;;;24.02;48.64;99810.50;5031927;28;20051;-61
2022/08/27 06:04:12;;;;;;;91.25;56.97;;;;;;;24.12;48.27;99801.28;5032158;28;20099;-60
2022/08/27 06:06:41;;;;;;;91.68;56.72;;;;;;;24.19;48.00;99796.19;5031649;28;20076;-61
2022/08/27 06:09:09;;;;;;;100.72;59.22;;;;;;;24.28;47.27;99804.34;5031868;28;20061;-61
2022/08/27 06:11:35;;;;;;;94.85;56.72;;;;;;;24.38;46.50;99801.28;5028682;28;20104;-62
2022/08/27 06:14:01;;;;;;;87.82;56.08;;;;;;;24.50;46.35;99806.09;5031262;28;20037;-65
2022/08/27 06:16:27;;;;;;;94.82;57.92;;;;;;;24.60;46.48;99803.06;5031655;28;20050;-64
2022/08/27 06:18:53;;;;;;;92.72;54.88;;;;;;;24.67;45.40;99800.66;5032051;28;20403;-62
2022/08/27 06:21:19;;;;;;;82.13;54.08;;;;;;;24.79;45.02;99800.78;5016000;28;20586;-64
2022/08/27 06:23:46;;;;;;;98.68;57.65;;;;;;;24.87;45.77;99799.19;5013278;28;20042;-68
2022/08/27 06:26:14;;;;;;;94.97;57.72;;;;;;;24.91;45.91;99800.94;5011992;28;20046;-64
2022/08/27 06:28:40;;;;;;;91.72;57.95;;;;;;;24.95;45.30;99795.66;5031530;28;20037;-62
2022/08/27 06:31:08;;;;;;;99.88;56.75;;;;;;;25.02;45.03;99801.38;5031723;28;20552;-61
2022/08/27 06:33:33;;;;;;;99.55;57.03;;;;;;;25.11;45.28;99793.22;5023193;28;20511;-62
2022/08/27 06:36:00;;;;;;;98.65;55.42;;;;;;;25.29;45.04;99804.81;5011515;28;20080;-63
2022/08/27 06:38:30;;;;;;;89.47;53.80;;;;;;;25.40;44.96;99806.06;4996233;28;20046;-62
2022/08/27 06:41:06;;;;;;;100.75;54.17;;;;;;;25.49;43.69;99803.31;4966146;28;20080;-62
2022/08/27 06:43:37;;;;;;;97.18;55.50;;;;;;;25.57;43.53;99797.84;5020984;28;20037;-62
2022/08/27 06:46:04;;;;;;;91.72;55.92;;;;;;;25.65;43.30;99798.09;5032482;28;20107;-63
2022/08/27 06:48:30;;;;;;;88.20;54.10;;;;;;;25.69;43.41;99790.91;5032174;28;20069;-63
2022/08/27 06:50:56;;;;;;;91.95;55.65;;;;;;;25.77;42.90;99788.16;5032599;28;20077;-62
2022/08/27 06:53:22;;;;;;;95.50;55.80;;;;;;;25.83;42.32;99791.50;5032512;28;20116;-63
2022/08/27 06:55:48;;;;;;;91.68;55.30;;;;;;;25.85;42.17;99789.22;5031275;28;20530;-63
2022/08/27 06:58:15;;;;;;;85.97;53.88;;;;;;;25.96;42.15;99787.72;5032320;28;20052;-64
2022/08/27 07:00:41;;;;;;;86.97;54.17;;;;;;;25.99;41.40;99788.97;5031107;28;20033;-63
2022/08/27 07:03:07;;;;;;;96.22;54.50;;;;;;;25.97;41.33;99793.94;5032364;28;20418;-63
2022/08/27 07:05:34;;;;;;;96.50;56.35;;;;;;;26.01;41.44;99787.53;5032184;28;20406;-63
2022/08/27 07:08:00;;;;;;;94.57;57.10;;;;;;;26.04;41.59;99784.16;5032021;28;20522;-62
2022/08/27 07:10:27;;;;;;;86.07;54.55;;;;;;;26.08;41.38;99784.28;5030899;28;20049;-62
2022/08/27 07:12:53;;;;;;;94.90;55.03;;;;;;;26.16;40.80;99791.56;5030158;28;20045;-64
2022/08/27 07:15:19;;;;;;;85.28;54.10;;;;;;;26.26;40.41;99784.94;5032293;28;20045;-63
2022/08/27 07:17:44;;;;;;;89.22;54.90;;;;;;;26.34;39.85;99788.72;5030752;28;20045;-65
2022/08/27 07:20:11;;;;;;;89.18;53.20;;;;;;;26.36;39.76;99781.81;5030690;28;20037;-64
2022/08/27 07:22:41;;;;;;;75.55;48.75;;;;;;;26.37;39.06;99786.13;5031480;28;20044;-64
2022/08/27 07:25:11;;;;;;;81.18;48.42;;;;;;;26.43;39.36;99792.16;5031187;28;20203;-64
2022/08/27 07:27:37;;;;;;;;;;;;;;;26.52;37.71;99794.81;5032014;28;20053;-64
2022/08/27 07:30:08;;;;;;;72.72;45.40;;;;;;;26.57;37.17;99789.19;5031798;28;19932;-65
2022/08/27 07:32:34;;;;;;;79.10;47.00;;;;;;;26.65;37.26;99782.84;5009857;28;20054;-63
2022/08/27 07:35:02;;;;;;;75.28;46.88;;;;;;;26.65;37.66;99785.56;4993361;28;20147;-64
2022/08/27 07:37:29;;;;;;;81.82;46.13;;;;;;;26.69;37.35;99786.50;5010885;28;20056;-63
2022/08/27 07:39:55;;;;;;;69.18;42.33;;;;;;;26.71;36.74;99782.31;5011862;28;20046;-61
2022/08/27 07:45:06;;;;;;;57.90;34.70;;;;;;;26.97;34.85;99786.66;5009501;28;20061;-63
2022/08/27 07:47:31;;;;;;;46.40;29.40;;;;;;;27.13;32.78;99782.16;5011727;28;20049;-63
2022/08/27 07:49:57;;;;;;;40.80;25.10;;;;;;;27.24;31.64;99781.72;5012071;28;20049;-64
2022/08/27 07:52:26;;;;;;;44.35;26.30;;;;;;;27.33;32.16;99782.44;5021115;28;20045;-63
2022/08/27 07:54:53;;;;;;;44.17;28.70;;;;;;;27.39;31.92;99775.63;5029773;28;20135;-63
2022/08/27 07:57:26;;;;;;;37.63;23.30;;;;;;;27.50;30.97;99775.94;5013382;28;20180;-65
2022/08/27 07:59:57;;;;;;;36.85;22.02;;;;;;;27.59;30.02;99779.34;5029904;28;20092;-62
2022/08/27 08:02:23;;;;;;;35.75;23.20;;;;;;;27.64;29.59;99776.41;5029575;28;20053;-64
2022/08/27 08:04:57;;;;;;;31.38;21.67;;;;;;;27.68;29.72;99784.66;5025494;28;20099;-65
2022/08/27 08:07:27;;;;;;;31.10;21.70;;;;;;;27.68;29.65;99781.94;5031217;28;20540;-64
2022/08/27 08:09:53;;;;;;;40.15;23.98;;;;;;;27.67;29.65;99781.16;5031180;28;20076;-63
2022/08/27 08:12:19;;;;;;;41.28;24.35;;;;;;;27.66;30.21;99776.06;5030369;28;20526;-64
2022/08/27 08:14:45;;;;;;;32.65;23.05;;;;;;;27.62;29.93;99775.97;5031050;28;20046;-64
2022/08/27 08:17:11;;;;;;;35.55;24.13;;;;;;;27.61;29.83;99777.88;5031139;28;20045;-63
2022/08/27 08:19:37;;;;;;;40.50;24.60;;;;;;;27.62;30.16;99778.69;5030039;28;20418;-63
2022/08/27 08:22:26;;;;;;;37.63;23.10;;;;;;;27.66;30.68;99776.06;5031073;28;20043;-63
2022/08/27 08:24:52;;;;;;;41.22;24.50;;;;;;;27.69;30.19;99772.66;5012232;28;20196;-63
2022/08/27 08:27:19;;;;;;;36.60;25.40;;;;;;;27.77;30.00;99775.25;5031057;28;20041;-64
2022/08/27 08:29:53;;;;;;;35.58;24.98;;;;;;;27.83;29.49;99771.19;5029092;28;20053;-63
2022/08/27 08:32:22;;;;;;;40.03;26.48;;;;;;;27.89;29.75;99773.69;5008430;28;20107;-64
2022/08/27 08:34:49;;;;;;;45.20;26.35;;;;;;;27.93;29.95;99771.84;4992938;28;20054;-64
2022/08/27 08:37:15;;;;;;;41.85;26.80;;;;;;;28.03;29.99;99768.63;5009613;28;20045;-65
2022/08/27 08:39:40;;;;;;;33.17;23.63;;;;;;;28.14;29.38;99768.94;5021332;28;20057;-63
2022/08/27 08:42:27;;;;;;;36.25;23.67;;;;;;;28.25;29.11;99768.09;4985762;28;20053;-63
2022/08/27 08:44:54;;;;;;;43.33;25.80;;;;;;;28.38;29.02;99759.88;5014676;28;20093;-64
2022/08/27 08:48:08;;;;;;;35.58;22.17;;;;;;;28.50;27.83;99760.66;5032719;28;20041;-65
2022/08/27 08:50:41;;;;;;;37.22;24.02;;;;;;;28.53;28.03;99759.97;5033842;28;20061;-64
2022/08/27 08:53:11;;;;;;;37.13;24.20;;;;;;;28.51;28.53;99756.78;5033794;28;20041;-64
2022/08/27 08:55:47;;;;;;;;;;;;;;;28.51;28.42;99761.44;5033888;28;20140;-63
2022/08/27 08:58:45;;;;;;;28.48;18.90;;;;;;;28.50;27.27;99755.19;5032936;28;20086;-64
2022/08/27 09:01:13;;;;;;;31.88;20.10;;;;;;;28.53;27.30;99753.69;5034166;28;20053;-64
2022/08/27 09:03:49;;;;;;;28.58;20.48;;;;;;;28.58;26.99;99755.38;5011637;28;20046;-62
2022/08/27 09:06:40;;;;;;;32.03;20.85;;;;;;;28.63;27.29;99753.19;5022972;28;20041;-63
2022/08/27 09:09:41;;;;;;;29.15;18.17;;;;;;;28.65;25.83;99753.66;5032696;28;20054;-64
2022/08/27 09:12:17;;;;;;;25.95;17.95;;;;;;;28.67;26.17;99745.88;5015425;28;20125;-63
2022/08/27 09:14:52;;;;;;;27.10;17.08;;;;;;;28.70;25.39;99744.41;5014838;28;20061;-63
2022/08/27 09:17:19;;;;;;;24.08;19.10;;;;;;;28.80;25.91;99743.09;5011084;28;20502;-64
2022/08/27 09:19:45;;;;;;;26.27;18.75;;;;;;;28.93;25.70;99747.31;5001515;28;20052;-64
2022/08/27 09:22:47;;;;;;;27.65;17.45;;;;;;;28.98;25.12;99745.13;4998662;28;20104;-65
2022/08/27 09:25:24;;;;;;;28.08;17.63;;;;;;;29.05;24.86;99741.78;5010276;28;20062;-65
2022/08/27 09:27:52;;;;;;;17.92;14.23;;;;;;;29.11;23.71;99734.94;5012434;28;20077;-63
2022/08/27 09:30:21;;;;;;;22.95;16.65;;;;;;;29.18;24.77;99742.50;4994215;28;20053;-63
2022/08/27 09:32:55;;;;;;;22.90;14.98;;;;;;;29.28;24.46;99750.16;4994541;28;20050;-62
2022/08/27 09:35:22;;;;;;;22.70;14.32;;;;;;;29.31;24.12;99745.94;5011307;28;20495;-63
2022/08/27 09:37:53;;;;;;;23.63;15.23;;;;;;;29.33;23.89;99741.69;4994957;28;20435;-63
2022/08/27 09:40:30;;;;;;;24.02;16.15;;;;;;;29.33;24.15;99735.44;4994714;28;20088;-65
2022/08/27 09:43:21;;;;;;;21.98;15.57;;;;;;;29.33;24.86;99733.50;4994989;28;20050;-65
2022/08/27 09:46:08;;;;;;;21.67;15.52;;;;;;;29.43;24.17;99741.13;5010157;28;20054;-66
2022/08/27 09:48:36;;;;;;;18.70;14.15;;;;;;;29.53;24.46;99739.81;4992249;28;20054;-64
2022/08/27 09:51:07;;;;;;;20.15;14.27;;;;;;;29.54;23.98;99732.41;4995008;28;20049;-65
2022/08/27 09:53:54;;;;;;;21.05;14.68;;;;;;;29.51;24.38;99733.91;5002112;28;20041;-65
2022/08/27 09:56:47;;;;;;;24.67;15.57;;;;;;;29.51;24.63;99736.63;4987976;28;20066;-65
2022/08/27 09:59:50;;;;;;;24.55;14.98;;;;;;;29.54;24.70;99735.13;4992726;28;20050;-64
2022/08/27 10:02:19;;;;;;;16.85;13.85;;;;;;;29.51;24.70;99736.63;5010247;28;20049;-64
2022/08/27 10:04:47;;;;;;;23.08;15.38;;;;;;;29.42;24.75;99736.84;4996998;28;20137;-64
2022/08/27 10:07:51;;;;;;;24.55;14.52;;;;;;;29.46;25.10;99739.63;4993066;28;20120;-64
2022/08/27 10:10:19;;;;;;;28.33;17.45;;;;;;;29.46;25.17;99739.63;4976478;28;20538;-66
2022/08/27 10:13:20;;;;;;;21.20;15.30;;;;;;;29.43;24.75;99734.88;4992492;28;20161;-62
2022/08/27 10:16:08;;;;;;;19.25;15.13;;;;;;;29.46;25.71;99725.97;4992604;28;20050;-63
2022/08/27 10:18:45;;;;;;;23.98;15.30;;;;;;;29.52;24.85;99732.75;4988889;28;20049;-65
2022/08/27 10:21:29;;;;;;;19.13;13.88;;;;;;;29.54;25.48;99724.22;4992515;28;20442;-63
2022/08/27 10:23:55;;;;;;;24.65;16.05;;;;;;;29.63;25.16;99722.09;4993450;28;20085;-63
2022/08/27 10:26:27;;;;;;;24.65;16.60;;;;;;;29.69;24.79;99719.88;4992647;28;20066;-63
2022/08/27 10:29:02;;;;;;;25.90;16.98;;;;;;;29.74;25.00;99722.31;5008473;28;20046;-62
2022/08/27 10:31:38;;;;;;;22.35;16.10;;;;;;;29.70;24.62;99724.97;4994131;28;20526;-65
2022/08/27 10:34:21;;;;;;;22.75;16.42;;;;;;;29.70;24.52;99719.50;5031813;28;20052;-61
2022/08/27 10:36:59;;;;;;;24.00;16.63;;;;;;;29.61;25.16;99721.63;5030635;28;20037;-63
2022/08/27 10:39:44;;;;;;;27.65;16.70;;;;;;;29.62;25.63;99721.31;5014431;28;20445;-61
2022/08/27 10:42:29;;;;;;;26.42;16.65;;;;;;;29.62;24.42;99715.03;5030996;28;20053;-64
2022/08/27 10:45:10;;;;;;;23.65;16.75;;;;;;;29.58;25.03;99709.47;5032381;28;20048;-63
2022/08/27 10:47:48;;;;;;;23.25;15.98;;;;;;;29.53;24.65;99722.63;5030612;28;20049;-64
2022/08/27 10:50:35;;;;;;;28.05;17.58;;;;;;;29.55;25.04;99717.59;5032643;28;20572;-64
2022/08/27 10:53:06;;;;;;;31.35;16.83;;;;;;;29.59;25.10;99715.72;5031186;28;20041;-64
2022/08/27 10:55:39;;;;;;;20.63;16.60;;;;;;;29.60;24.98;99709.91;5030384;28;20037;-63
2022/08/27 10:58:20;;;;;;;23.88;16.95;;;;;;;29.65;24.77;99708.88;5032421;28;20171;-63
2022/08/27 11:00:58;;;;;;;32.67;17.08;;;;;;;29.67;25.15;99705.78;5031672;28;20529;-65
2022/08/27 11:03:33;;;;;;;24.13;17.77;;;;;;;29.69;24.82;99704.28;5031875;28;20072;-64
2022/08/27 11:06:02;;;;;;;24.23;17.05;;;;;;;29.73;24.70;99699.66;5030042;28;20049;-63
2022/08/27 11:08:39;;;;;;;24.00;17.45;;;;;;;29.68;24.54;99701.88;5031412;28;20038;-62
2022/08/27 11:11:09;;;;;;;24.27;17.77;;;;;;;29.74;24.68;99701.28;5014562;28;20049;-64
2022/08/27 11:13:38;;;;;;;28.85;17.90;;;;;;;29.81;24.48;99700.63;5030241;28;20040;-63
2022/08/27 11:16:26;;;;;;;24.55;17.40;;;;;;;29.92;24.17;99700.84;5011157;28;20038;-62
2022/08/27 11:19:17;;;;;;;26.48;18.38;;;;;;;30.00;24.40;99699.81;5027625;28;20045;-61
2022/08/27 11:21:46;;;;;;;31.30;18.50;;;;;;;30.11;24.61;99700.81;5002643;28;20057;-64
2022/08/27 11:24:27;;;;;;;26.40;19.00;;;;;;;30.19;24.52;99702.53;5032180;28;20405;-63
2022/08/27 11:26:57;;;;;;;33.13;19.58;;;;;;;30.26;24.71;99694.50;5030620;28;20507;-63
2022/08/27 11:29:22;;;;;;;;;;;;;;;30.41;24.10;99689.28;5031079;28;20410;-62
2022/08/27 11:31:57;;;;;;;21.80;16.90;;;;;;;30.49;23.56;99686.31;5031715;28;19932;-62
2022/08/27 11:34:36;;;;;;;24.05;17.98;;;;;;;30.49;23.41;99680.84;5031486;28;20048;-62
2022/08/27 11:37:10;;;;;;;25.08;18.08;;;;;;;30.54;23.53;99685.22;5031622;28;20450;-63
2022/08/27 11:39:36;;;;;;;26.75;18.77;;;;;;;30.58;23.79;99686.06;5031804;28;20049;-62
2022/08/27 11:43:00;;;;;;;25.40;19.42;;;;;;;30.62;24.01;99686.13;5031646;28;20052;-64
2022/08/27 11:45:37;;;;;;;21.52;14.90;;;;;;;30.67;23.24;99686.63;5031923;28;20047;-63